sensor_id;sensor_type;location;lat;lon;timestamp;P1;durP1;ratioP1;P2;durP2;ratioP2
76995;SDS011;65929;49.062;10.338;2023-05-09T00:00:36;15.63;;;8.20;;
76995;SDS011;65929;49.062;10.338;2023-05-09T00:01:37;13.95;;;8.05;;
76995;SDS011;65929;49.062;10.338;2023-05-09T00:02:39;12.85;;;7.80;;
76995;SDS011;65929;49.062;10.338;2023-05-09T00:03:40;13.40;;;7.97;;
76995;SDS011;65929;49.062;10.338;2023-05-09T00:04:42;12.45;;;7.40;;
76995;SDS011;65929;49.062;10.338;2023-05-09T00:07:14;14.43;;;8.30;;
76995;SDS011;65929;49.062;10.338;2023-05-09T00:08:18;15.88;;;8.65;;
76995;SDS011;65929;49.062;10.338;2023-05-09T00:09:19;12.18;;;7.93;;
76995;SDS011;65929;49.062;10.338;2023-05-09T00:10:20;14.07;;;8.68;;
76995;SDS011;65929;49.062;10.338;2023-05-09T00:11:22;14.40;;;8.73;;
76995;SDS011;65929;49.062;10.338;2023-05-09T00:12:23;13.43;;;8.13;;
76995;SDS011;65929;49.062;10.338;2023-05-09T00:13:24;15.00;;;9.00;;
76995;SDS011;65929;49.062;10.338;2023-05-09T00:14:25;16.00;;;9.38;;
76995;SDS011;65929;49.062;10.338;2023-05-09T00:15:26;14.80;;;9.18;;
76995;SDS011;65929;49.062;10.338;2023-05-09T00:16:28;14.60;;;9.48;;
76995;SDS011;65929;49.062;10.338;2023-05-09T00:17:29;16.70;;;9.88;;
76995;SDS011;65929;49.062;10.338;2023-05-09T00:18:30;16.02;;;9.43;;
76995;SDS011;65929;49.062;10.338;2023-05-09T00:19:33;16.17;;;9.88;;
76995;SDS011;65929;49.062;10.338;2023-05-09T00:20:34;17.25;;;9.52;;
76995;SDS011;65929;49.062;10.338;2023-05-09T00:21:35;16.88;;;9.98;;
76995;SDS011;65929;49.062;10.338;2023-05-09T00:22:36;16.75;;;9.93;;
76995;SDS011;65929;49.062;10.338;2023-05-09T00:23:38;15.93;;;9.27;;
76995;SDS011;65929;49.062;10.338;2023-05-09T00:24:39;17.70;;;10.40;;
76995;SDS011;65929;49.062;10.338;2023-05-09T00:25:40;15.57;;;9.27;;
76995;SDS011;65929;49.062;10.338;2023-05-09T00:26:43;17.08;;;9.30;;
76995;SDS011;65929;49.062;10.338;2023-05-09T00:27:44;16.92;;;9.48;;
76995;SDS011;65929;49.062;10.338;2023-05-09T00:28:48;16.88;;;9.52;;
76995;SDS011;65929;49.062;10.338;2023-05-09T00:29:49;17.80;;;9.05;;
76995;SDS011;65929;49.062;10.338;2023-05-09T00:30:50;16.80;;;9.52;;
76995;SDS011;65929;49.062;10.338;2023-05-09T00:31:51;18.42;;;9.68;;
76995;SDS011;65929;49.062;10.338;2023-05-09T00:32:52;18.42;;;9.70;;
76995;SDS011;65929;49.062;10.338;2023-05-09T00:33:53;18.00;;;9.82;;
76995;SDS011;65929;49.062;10.338;2023-05-09T00:34:54;18.52;;;9.80;;
76995;SDS011;65929;49.062;10.338;2023-05-09T00:35:54;19.02;;;10.98;;
76995;SDS011;65929;49.062;10.338;2023-05-09T00:36:55;19.17;;;10.55;;
76995;SDS011;65929;49.062;10.338;2023-05-09T00:37:56;19.77;;;10.63;;
76995;SDS011;65929;49.062;10.338;2023-05-09T00:38:58;18.58;;;10.48;;
76995;SDS011;65929;49.062;10.338;2023-05-09T00:39:59;18.27;;;10.23;;
76995;SDS011;65929;49.062;10.338;2023-05-09T00:41:00;18.95;;;11.52;;
76995;SDS011;65929;49.062;10.338;2023-05-09T00:42:03;21.52;;;10.93;;
76995;SDS011;65929;49.062;10.338;2023-05-09T00:43:04;18.70;;;11.20;;
76995;SDS011;65929;49.062;10.338;2023-05-09T00:44:05;19.98;;;10.57;;
76995;SDS011;65929;49.062;10.338;2023-05-09T00:45:06;23.92;;;12.13;;
76995;SDS011;65929;49.062;10.338;2023-05-09T00:46:08;21.13;;;11.85;;
76995;SDS011;65929;49.062;10.338;2023-05-09T00:47:09;19.63;;;11.10;;
76995;SDS011;65929;49.062;10.338;2023-05-09T00:48:13;20.90;;;10.98;;
76995;SDS011;65929;49.062;10.338;2023-05-09T00:49:15;23.45;;;10.95;;
76995;SDS011;65929;49.062;10.338;2023-05-09T00:50:16;17.95;;;10.65;;
76995;SDS011;65929;49.062;10.338;2023-05-09T00:51:17;20.20;;;11.10;;
76995;SDS011;65929;49.062;10.338;2023-05-09T00:52:18;17.30;;;10.27;;
76995;SDS011;65929;49.062;10.338;2023-05-09T00:53:25;18.85;;;10.27;;
76995;SDS011;65929;49.062;10.338;2023-05-09T00:54:27;18.85;;;10.30;;
76995;SDS011;65929;49.062;10.338;2023-05-09T00:55:28;21.48;;;10.95;;
76995;SDS011;65929;49.062;10.338;2023-05-09T00:56:30;21.02;;;11.07;;
76995;SDS011;65929;49.062;10.338;2023-05-09T00:57:32;22.58;;;10.77;;
76995;SDS011;65929;49.062;10.338;2023-05-09T00:58:33;24.15;;;11.38;;
76995;SDS011;65929;49.062;10.338;2023-05-09T00:59:34;20.08;;;11.57;;
76995;SDS011;65929;49.062;10.338;2023-05-09T01:00:35;21.35;;;11.38;;
76995;SDS011;65929;49.062;10.338;2023-05-09T01:01:37;22.13;;;10.60;;
76995;SDS011;65929;49.062;10.338;2023-05-09T01:02:38;20.92;;;13.13;;
76995;SDS011;65929;49.062;10.338;2023-05-09T01:03:39;20.40;;;11.00;;
76995;SDS011;65929;49.062;10.338;2023-05-09T01:04:41;22.60;;;12.50;;
76995;SDS011;65929;49.062;10.338;2023-05-09T01:05:45;21.65;;;12.30;;
76995;SDS011;65929;49.062;10.338;2023-05-09T01:06:57;25.05;;;13.18;;
76995;SDS011;65929;49.062;10.338;2023-05-09T01:08:06;21.80;;;12.70;;
76995;SDS011;65929;49.062;10.338;2023-05-09T01:09:14;22.45;;;11.70;;
76995;SDS011;65929;49.062;10.338;2023-05-09T01:10:24;23.25;;;13.25;;
76995;SDS011;65929;49.062;10.338;2023-05-09T01:11:32;25.60;;;13.38;;
76995;SDS011;65929;49.062;10.338;2023-05-09T01:12:40;23.67;;;13.15;;
76995;SDS011;65929;49.062;10.338;2023-05-09T01:13:48;23.38;;;13.10;;
76995;SDS011;65929;49.062;10.338;2023-05-09T01:14:58;20.17;;;12.45;;
76995;SDS011;65929;49.062;10.338;2023-05-09T01:16:05;22.10;;;13.25;;
76995;SDS011;65929;49.062;10.338;2023-05-09T01:17:10;23.52;;;13.13;;
76995;SDS011;65929;49.062;10.338;2023-05-09T01:19:25;25.30;;;13.10;;
76995;SDS011;65929;49.062;10.338;2023-05-09T01:20:36;20.13;;;12.13;;
76995;SDS011;65929;49.062;10.338;2023-05-09T01:21:44;22.17;;;12.68;;
76995;SDS011;65929;49.062;10.338;2023-05-09T01:22:51;22.20;;;13.00;;
76995;SDS011;65929;49.062;10.338;2023-05-09T01:24:12;22.67;;;12.68;;
76995;SDS011;65929;49.062;10.338;2023-05-09T01:25:35;23.80;;;13.07;;
76995;SDS011;65929;49.062;10.338;2023-05-09T01:26:43;22.77;;;12.93;;
76995;SDS011;65929;49.062;10.338;2023-05-09T01:27:56;22.63;;;12.73;;
76995;SDS011;65929;49.062;10.338;2023-05-09T01:29:12;23.30;;;13.65;;
76995;SDS011;65929;49.062;10.338;2023-05-09T01:30:38;21.23;;;12.43;;
76995;SDS011;65929;49.062;10.338;2023-05-09T01:31:43;24.63;;;12.48;;
76995;SDS011;65929;49.062;10.338;2023-05-09T01:32:46;21.75;;;13.25;;
76995;SDS011;65929;49.062;10.338;2023-05-09T01:33:51;23.23;;;12.52;;
76995;SDS011;65929;49.062;10.338;2023-05-09T01:34:58;23.95;;;12.95;;
76995;SDS011;65929;49.062;10.338;2023-05-09T01:36:03;26.52;;;13.90;;
76995;SDS011;65929;49.062;10.338;2023-05-09T01:37:07;22.88;;;12.85;;
76995;SDS011;65929;49.062;10.338;2023-05-09T01:38:10;23.95;;;13.02;;
76995;SDS011;65929;49.062;10.338;2023-05-09T01:39:14;25.65;;;13.35;;
76995;SDS011;65929;49.062;10.338;2023-05-09T01:40:18;23.48;;;13.25;;
76995;SDS011;65929;49.062;10.338;2023-05-09T01:41:20;23.98;;;13.13;;
76995;SDS011;65929;49.062;10.338;2023-05-09T01:42:24;23.75;;;13.00;;
76995;SDS011;65929;49.062;10.338;2023-05-09T01:43:30;24.42;;;13.30;;
76995;SDS011;65929;49.062;10.338;2023-05-09T01:44:36;23.08;;;12.63;;
76995;SDS011;65929;49.062;10.338;2023-05-09T01:45:38;27.00;;;13.30;;
76995;SDS011;65929;49.062;10.338;2023-05-09T01:46:40;22.20;;;12.95;;
76995;SDS011;65929;49.062;10.338;2023-05-09T01:47:42;22.58;;;12.85;;
76995;SDS011;65929;49.062;10.338;2023-05-09T01:48:43;23.45;;;13.52;;
76995;SDS011;65929;49.062;10.338;2023-05-09T01:49:45;22.35;;;12.23;;
76995;SDS011;65929;49.062;10.338;2023-05-09T01:50:47;25.15;;;12.13;;
76995;SDS011;65929;49.062;10.338;2023-05-09T01:51:51;22.05;;;12.48;;
76995;SDS011;65929;49.062;10.338;2023-05-09T01:52:54;21.65;;;12.05;;
76995;SDS011;65929;49.062;10.338;2023-05-09T01:53:57;21.55;;;11.65;;
76995;SDS011;65929;49.062;10.338;2023-05-09T01:55:00;21.83;;;11.43;;
76995;SDS011;65929;49.062;10.338;2023-05-09T01:56:05;19.58;;;11.80;;
76995;SDS011;65929;49.062;10.338;2023-05-09T01:57:08;22.13;;;11.32;;
76995;SDS011;65929;49.062;10.338;2023-05-09T01:59:15;16.35;;;9.40;;
76995;SDS011;65929;49.062;10.338;2023-05-09T02:00:20;18.58;;;9.85;;
76995;SDS011;65929;49.062;10.338;2023-05-09T02:01:22;18.52;;;9.75;;
76995;SDS011;65929;49.062;10.338;2023-05-09T02:02:25;18.35;;;9.65;;
76995;SDS011;65929;49.062;10.338;2023-05-09T02:03:27;19.30;;;10.43;;
76995;SDS011;65929;49.062;10.338;2023-05-09T02:04:29;17.92;;;10.27;;
76995;SDS011;65929;49.062;10.338;2023-05-09T02:05:31;17.00;;;9.70;;
76995;SDS011;65929;49.062;10.338;2023-05-09T02:06:32;16.67;;;9.75;;
76995;SDS011;65929;49.062;10.338;2023-05-09T02:07:34;17.02;;;9.43;;
76995;SDS011;65929;49.062;10.338;2023-05-09T02:08:37;18.80;;;10.40;;
76995;SDS011;65929;49.062;10.338;2023-05-09T02:09:38;18.75;;;10.15;;
76995;SDS011;65929;49.062;10.338;2023-05-09T02:10:40;17.40;;;8.95;;
76995;SDS011;65929;49.062;10.338;2023-05-09T02:11:43;22.80;;;10.23;;
76995;SDS011;65929;49.062;10.338;2023-05-09T02:12:44;15.02;;;9.15;;
76995;SDS011;65929;49.062;10.338;2023-05-09T02:13:45;16.48;;;9.13;;
76995;SDS011;65929;49.062;10.338;2023-05-09T02:14:46;17.65;;;9.38;;
76995;SDS011;65929;49.062;10.338;2023-05-09T02:15:48;16.45;;;9.80;;
76995;SDS011;65929;49.062;10.338;2023-05-09T02:16:50;17.33;;;9.23;;
76995;SDS011;65929;49.062;10.338;2023-05-09T02:17:51;15.73;;;8.55;;
76995;SDS011;65929;49.062;10.338;2023-05-09T02:18:52;17.23;;;8.82;;
76995;SDS011;65929;49.062;10.338;2023-05-09T02:19:53;16.17;;;8.20;;
76995;SDS011;65929;49.062;10.338;2023-05-09T02:20:54;15.02;;;8.50;;
76995;SDS011;65929;49.062;10.338;2023-05-09T02:21:54;15.20;;;8.20;;
76995;SDS011;65929;49.062;10.338;2023-05-09T02:22:56;15.15;;;8.82;;
76995;SDS011;65929;49.062;10.338;2023-05-09T02:23:57;16.05;;;8.95;;
76995;SDS011;65929;49.062;10.338;2023-05-09T02:24:58;16.73;;;8.50;;
76995;SDS011;65929;49.062;10.338;2023-05-09T02:26:00;15.45;;;7.82;;
76995;SDS011;65929;49.062;10.338;2023-05-09T02:27:01;18.65;;;8.65;;
76995;SDS011;65929;49.062;10.338;2023-05-09T02:28:03;17.27;;;8.38;;
76995;SDS011;65929;49.062;10.338;2023-05-09T02:29:05;13.55;;;7.97;;
76995;SDS011;65929;49.062;10.338;2023-05-09T02:30:07;14.00;;;8.07;;
76995;SDS011;65929;49.062;10.338;2023-05-09T02:31:13;13.65;;;8.15;;
76995;SDS011;65929;49.062;10.338;2023-05-09T02:32:18;15.50;;;8.27;;
76995;SDS011;65929;49.062;10.338;2023-05-09T02:33:22;17.33;;;8.88;;
76995;SDS011;65929;49.062;10.338;2023-05-09T02:34:23;14.02;;;8.52;;
76995;SDS011;65929;49.062;10.338;2023-05-09T02:35:25;15.20;;;8.38;;
76995;SDS011;65929;49.062;10.338;2023-05-09T02:36:27;15.43;;;8.20;;
76995;SDS011;65929;49.062;10.338;2023-05-09T02:37:28;13.80;;;7.97;;
76995;SDS011;65929;49.062;10.338;2023-05-09T02:38:30;15.90;;;8.60;;
76995;SDS011;65929;49.062;10.338;2023-05-09T02:39:31;14.10;;;8.25;;
76995;SDS011;65929;49.062;10.338;2023-05-09T02:40:32;15.55;;;8.40;;
76995;SDS011;65929;49.062;10.338;2023-05-09T02:41:33;11.82;;;7.75;;
76995;SDS011;65929;49.062;10.338;2023-05-09T02:42:35;14.70;;;8.15;;
76995;SDS011;65929;49.062;10.338;2023-05-09T02:43:36;16.55;;;8.48;;
76995;SDS011;65929;49.062;10.338;2023-05-09T02:44:37;15.65;;;8.63;;
76995;SDS011;65929;49.062;10.338;2023-05-09T02:45:38;13.68;;;8.27;;
76995;SDS011;65929;49.062;10.338;2023-05-09T02:46:40;14.80;;;8.02;;
76995;SDS011;65929;49.062;10.338;2023-05-09T02:47:41;16.63;;;9.32;;
76995;SDS011;65929;49.062;10.338;2023-05-09T02:48:42;16.08;;;8.18;;
76995;SDS011;65929;49.062;10.338;2023-05-09T02:49:43;13.93;;;7.82;;
76995;SDS011;65929;49.062;10.338;2023-05-09T02:50:44;15.02;;;8.30;;
76995;SDS011;65929;49.062;10.338;2023-05-09T02:51:45;14.55;;;8.43;;
76995;SDS011;65929;49.062;10.338;2023-05-09T02:52:46;14.15;;;8.23;;
76995;SDS011;65929;49.062;10.338;2023-05-09T02:53:47;17.52;;;9.15;;
76995;SDS011;65929;49.062;10.338;2023-05-09T02:54:47;16.95;;;7.80;;
76995;SDS011;65929;49.062;10.338;2023-05-09T02:55:48;14.73;;;8.77;;
76995;SDS011;65929;49.062;10.338;2023-05-09T02:56:49;14.50;;;8.82;;
76995;SDS011;65929;49.062;10.338;2023-05-09T02:57:50;18.08;;;8.95;;
76995;SDS011;65929;49.062;10.338;2023-05-09T02:58:51;16.25;;;8.93;;
76995;SDS011;65929;49.062;10.338;2023-05-09T02:59:52;20.50;;;10.23;;
76995;SDS011;65929;49.062;10.338;2023-05-09T03:00:53;14.52;;;8.82;;
76995;SDS011;65929;49.062;10.338;2023-05-09T03:01:56;16.13;;;8.20;;
76995;SDS011;65929;49.062;10.338;2023-05-09T03:02:57;16.98;;;9.77;;
76995;SDS011;65929;49.062;10.338;2023-05-09T03:03:59;17.75;;;9.10;;
76995;SDS011;65929;49.062;10.338;2023-05-09T03:05:00;17.73;;;8.98;;
76995;SDS011;65929;49.062;10.338;2023-05-09T03:06:01;14.25;;;8.45;;
76995;SDS011;65929;49.062;10.338;2023-05-09T03:07:02;17.45;;;9.23;;
76995;SDS011;65929;49.062;10.338;2023-05-09T03:08:03;17.98;;;9.13;;
76995;SDS011;65929;49.062;10.338;2023-05-09T03:09:04;18.88;;;9.93;;
76995;SDS011;65929;49.062;10.338;2023-05-09T03:10:06;17.35;;;9.48;;
76995;SDS011;65929;49.062;10.338;2023-05-09T03:11:10;21.27;;;10.60;;
76995;SDS011;65929;49.062;10.338;2023-05-09T03:12:11;19.70;;;10.85;;
76995;SDS011;65929;49.062;10.338;2023-05-09T03:13:12;20.15;;;10.50;;
76995;SDS011;65929;49.062;10.338;2023-05-09T03:14:13;21.25;;;10.38;;
76995;SDS011;65929;49.062;10.338;2023-05-09T03:15:14;22.65;;;11.02;;
76995;SDS011;65929;49.062;10.338;2023-05-09T03:16:16;23.25;;;11.93;;
76995;SDS011;65929;49.062;10.338;2023-05-09T03:17:19;20.35;;;10.65;;
76995;SDS011;65929;49.062;10.338;2023-05-09T03:18:22;20.70;;;10.73;;
76995;SDS011;65929;49.062;10.338;2023-05-09T03:19:24;23.60;;;11.57;;
76995;SDS011;65929;49.062;10.338;2023-05-09T03:20:25;20.92;;;11.02;;
76995;SDS011;65929;49.062;10.338;2023-05-09T03:21:26;20.50;;;10.68;;
76995;SDS011;65929;49.062;10.338;2023-05-09T03:22:27;26.63;;;11.55;;
76995;SDS011;65929;49.062;10.338;2023-05-09T03:23:28;23.15;;;12.15;;
76995;SDS011;65929;49.062;10.338;2023-05-09T03:24:29;20.60;;;11.32;;
76995;SDS011;65929;49.062;10.338;2023-05-09T03:25:30;22.30;;;11.60;;
76995;SDS011;65929;49.062;10.338;2023-05-09T03:26:31;21.55;;;11.50;;
76995;SDS011;65929;49.062;10.338;2023-05-09T03:27:34;20.25;;;11.57;;
76995;SDS011;65929;49.062;10.338;2023-05-09T03:28:36;22.75;;;11.57;;
76995;SDS011;65929;49.062;10.338;2023-05-09T03:29:37;24.08;;;12.27;;
76995;SDS011;65929;49.062;10.338;2023-05-09T03:30:38;24.48;;;12.32;;
76995;SDS011;65929;49.062;10.338;2023-05-09T03:31:39;23.55;;;13.30;;
76995;SDS011;65929;49.062;10.338;2023-05-09T03:32:41;25.05;;;12.38;;
76995;SDS011;65929;49.062;10.338;2023-05-09T03:33:43;24.40;;;11.57;;
76995;SDS011;65929;49.062;10.338;2023-05-09T03:34:43;22.33;;;12.13;;
76995;SDS011;65929;49.062;10.338;2023-05-09T03:35:45;22.45;;;12.32;;
76995;SDS011;65929;49.062;10.338;2023-05-09T03:36:46;21.42;;;11.13;;
76995;SDS011;65929;49.062;10.338;2023-05-09T03:37:47;20.77;;;10.10;;
76995;SDS011;65929;49.062;10.338;2023-05-09T03:38:48;19.75;;;10.75;;
76995;SDS011;65929;49.062;10.338;2023-05-09T03:39:48;19.90;;;10.15;;
76995;SDS011;65929;49.062;10.338;2023-05-09T03:40:50;22.27;;;11.27;;
76995;SDS011;65929;49.062;10.338;2023-05-09T03:41:52;18.15;;;9.27;;
76995;SDS011;65929;49.062;10.338;2023-05-09T03:42:53;19.38;;;11.35;;
76995;SDS011;65929;49.062;10.338;2023-05-09T03:43:54;18.77;;;9.50;;
76995;SDS011;65929;49.062;10.338;2023-05-09T03:44:55;20.92;;;10.38;;
76995;SDS011;65929;49.062;10.338;2023-05-09T03:45:56;21.48;;;10.70;;
76995;SDS011;65929;49.062;10.338;2023-05-09T03:46:57;20.70;;;10.25;;
76995;SDS011;65929;49.062;10.338;2023-05-09T03:47:59;18.60;;;9.75;;
76995;SDS011;65929;49.062;10.338;2023-05-09T03:49:02;20.17;;;10.90;;
76995;SDS011;65929;49.062;10.338;2023-05-09T03:50:03;18.55;;;10.20;;
76995;SDS011;65929;49.062;10.338;2023-05-09T03:51:05;18.05;;;10.02;;
76995;SDS011;65929;49.062;10.338;2023-05-09T03:52:06;19.48;;;10.27;;
76995;SDS011;65929;49.062;10.338;2023-05-09T03:53:07;20.27;;;10.60;;
76995;SDS011;65929;49.062;10.338;2023-05-09T03:54:08;20.27;;;9.85;;
76995;SDS011;65929;49.062;10.338;2023-05-09T03:55:09;19.83;;;10.27;;
76995;SDS011;65929;49.062;10.338;2023-05-09T03:56:13;19.85;;;10.65;;
76995;SDS011;65929;49.062;10.338;2023-05-09T03:57:14;17.42;;;10.00;;
76995;SDS011;65929;49.062;10.338;2023-05-09T03:58:15;20.00;;;10.05;;
76995;SDS011;65929;49.062;10.338;2023-05-09T03:59:18;19.90;;;10.07;;
76995;SDS011;65929;49.062;10.338;2023-05-09T04:00:20;20.90;;;10.73;;
76995;SDS011;65929;49.062;10.338;2023-05-09T04:01:21;20.42;;;10.52;;
76995;SDS011;65929;49.062;10.338;2023-05-09T04:02:22;20.58;;;10.05;;
76995;SDS011;65929;49.062;10.338;2023-05-09T04:03:24;19.60;;;10.10;;
76995;SDS011;65929;49.062;10.338;2023-05-09T04:04:26;20.92;;;9.77;;
76995;SDS011;65929;49.062;10.338;2023-05-09T04:05:27;20.08;;;10.15;;
76995;SDS011;65929;49.062;10.338;2023-05-09T04:06:28;18.63;;;9.80;;
76995;SDS011;65929;49.062;10.338;2023-05-09T04:07:29;20.08;;;10.00;;
76995;SDS011;65929;49.062;10.338;2023-05-09T04:08:30;18.15;;;10.15;;
76995;SDS011;65929;49.062;10.338;2023-05-09T04:09:32;18.77;;;9.30;;
76995;SDS011;65929;49.062;10.338;2023-05-09T04:10:32;18.30;;;9.70;;
76995;SDS011;65929;49.062;10.338;2023-05-09T04:11:33;21.13;;;9.80;;
76995;SDS011;65929;49.062;10.338;2023-05-09T04:12:34;19.73;;;10.13;;
76995;SDS011;65929;49.062;10.338;2023-05-09T04:13:35;19.30;;;8.80;;
76995;SDS011;65929;49.062;10.338;2023-05-09T04:14:36;17.90;;;9.50;;
76995;SDS011;65929;49.062;10.338;2023-05-09T04:15:38;19.63;;;9.45;;
76995;SDS011;65929;49.062;10.338;2023-05-09T04:16:39;16.10;;;9.15;;
76995;SDS011;65929;49.062;10.338;2023-05-09T04:17:41;20.45;;;11.07;;
76995;SDS011;65929;49.062;10.338;2023-05-09T04:18:44;16.70;;;9.75;;
76995;SDS011;65929;49.062;10.338;2023-05-09T04:19:45;20.20;;;10.30;;
76995;SDS011;65929;49.062;10.338;2023-05-09T04:20:46;18.73;;;10.75;;
76995;SDS011;65929;49.062;10.338;2023-05-09T04:21:47;21.83;;;10.57;;
76995;SDS011;65929;49.062;10.338;2023-05-09T04:22:47;22.00;;;11.75;;
76995;SDS011;65929;49.062;10.338;2023-05-09T04:23:48;21.13;;;11.43;;
76995;SDS011;65929;49.062;10.338;2023-05-09T04:24:50;24.20;;;12.52;;
76995;SDS011;65929;49.062;10.338;2023-05-09T04:25:51;23.40;;;12.38;;
76995;SDS011;65929;49.062;10.338;2023-05-09T04:26:53;21.58;;;12.27;;
76995;SDS011;65929;49.062;10.338;2023-05-09T04:27:54;23.80;;;11.45;;
76995;SDS011;65929;49.062;10.338;2023-05-09T04:28:55;23.42;;;13.07;;
76995;SDS011;65929;49.062;10.338;2023-05-09T04:29:56;21.27;;;11.50;;
76995;SDS011;65929;49.062;10.338;2023-05-09T04:30:57;21.25;;;11.90;;
76995;SDS011;65929;49.062;10.338;2023-05-09T04:31:58;19.25;;;10.52;;
76995;SDS011;65929;49.062;10.338;2023-05-09T04:32:59;19.45;;;10.52;;
76995;SDS011;65929;49.062;10.338;2023-05-09T04:34:01;21.67;;;11.70;;
76995;SDS011;65929;49.062;10.338;2023-05-09T04:35:02;20.58;;;10.43;;
76995;SDS011;65929;49.062;10.338;2023-05-09T04:36:05;17.58;;;9.50;;
76995;SDS011;65929;49.062;10.338;2023-05-09T04:37:06;18.30;;;9.52;;
76995;SDS011;65929;49.062;10.338;2023-05-09T04:38:08;17.83;;;9.65;;
76995;SDS011;65929;49.062;10.338;2023-05-09T04:39:09;17.45;;;8.93;;
76995;SDS011;65929;49.062;10.338;2023-05-09T04:40:10;18.42;;;9.13;;
76995;SDS011;65929;49.062;10.338;2023-05-09T04:41:12;15.45;;;8.48;;
76995;SDS011;65929;49.062;10.338;2023-05-09T04:42:13;16.52;;;8.63;;
76995;SDS011;65929;49.062;10.338;2023-05-09T04:43:14;14.18;;;8.18;;
76995;SDS011;65929;49.062;10.338;2023-05-09T04:44:15;13.90;;;7.97;;
76995;SDS011;65929;49.062;10.338;2023-05-09T04:45:16;12.73;;;6.78;;
76995;SDS011;65929;49.062;10.338;2023-05-09T04:46:17;10.18;;;6.63;;
76995;SDS011;65929;49.062;10.338;2023-05-09T04:47:18;14.90;;;6.78;;
76995;SDS011;65929;49.062;10.338;2023-05-09T04:48:19;13.75;;;7.60;;
76995;SDS011;65929;49.062;10.338;2023-05-09T04:49:21;13.38;;;7.20;;
76995;SDS011;65929;49.062;10.338;2023-05-09T04:50:22;13.68;;;7.35;;
76995;SDS011;65929;49.062;10.338;2023-05-09T04:51:23;12.02;;;7.43;;
76995;SDS011;65929;49.062;10.338;2023-05-09T04:52:25;10.68;;;6.80;;
76995;SDS011;65929;49.062;10.338;2023-05-09T04:53:26;13.32;;;7.53;;
76995;SDS011;65929;49.062;10.338;2023-05-09T04:54:27;12.50;;;7.28;;
76995;SDS011;65929;49.062;10.338;2023-05-09T04:55:28;12.32;;;6.35;;
76995;SDS011;65929;49.062;10.338;2023-05-09T04:56:29;11.25;;;6.43;;
76995;SDS011;65929;49.062;10.338;2023-05-09T04:57:30;10.07;;;6.47;;
76995;SDS011;65929;49.062;10.338;2023-05-09T04:58:31;11.85;;;6.90;;
76995;SDS011;65929;49.062;10.338;2023-05-09T04:59:33;11.40;;;6.50;;
76995;SDS011;65929;49.062;10.338;2023-05-09T05:00:34;11.10;;;6.40;;
76995;SDS011;65929;49.062;10.338;2023-05-09T05:01:35;12.55;;;7.30;;
76995;SDS011;65929;49.062;10.338;2023-05-09T05:02:36;10.20;;;6.63;;
76995;SDS011;65929;49.062;10.338;2023-05-09T05:03:38;13.02;;;6.25;;
76995;SDS011;65929;49.062;10.338;2023-05-09T05:04:40;11.38;;;6.65;;
76995;SDS011;65929;49.062;10.338;2023-05-09T05:05:41;11.90;;;6.47;;
76995;SDS011;65929;49.062;10.338;2023-05-09T05:06:42;10.93;;;6.32;;
76995;SDS011;65929;49.062;10.338;2023-05-09T05:07:43;11.73;;;5.70;;
76995;SDS011;65929;49.062;10.338;2023-05-09T05:08:44;12.57;;;6.97;;
76995;SDS011;65929;49.062;10.338;2023-05-09T05:09:45;9.63;;;6.10;;
76995;SDS011;65929;49.062;10.338;2023-05-09T05:10:46;10.65;;;6.20;;
76995;SDS011;65929;49.062;10.338;2023-05-09T05:11:48;11.75;;;6.45;;
76995;SDS011;65929;49.062;10.338;2023-05-09T05:12:49;11.13;;;6.68;;
76995;SDS011;65929;49.062;10.338;2023-05-09T05:13:50;10.75;;;6.78;;
76995;SDS011;65929;49.062;10.338;2023-05-09T05:14:51;10.05;;;6.10;;
76995;SDS011;65929;49.062;10.338;2023-05-09T05:15:52;9.85;;;6.10;;
76995;SDS011;65929;49.062;10.338;2023-05-09T05:16:53;12.80;;;6.75;;
76995;SDS011;65929;49.062;10.338;2023-05-09T05:17:54;11.38;;;6.63;;
76995;SDS011;65929;49.062;10.338;2023-05-09T05:18:55;9.43;;;6.32;;
76995;SDS011;65929;49.062;10.338;2023-05-09T05:19:57;10.38;;;6.38;;
76995;SDS011;65929;49.062;10.338;2023-05-09T05:20:58;10.95;;;6.13;;
76995;SDS011;65929;49.062;10.338;2023-05-09T05:21:59;11.25;;;6.75;;
76995;SDS011;65929;49.062;10.338;2023-05-09T05:23:00;10.75;;;6.07;;
76995;SDS011;65929;49.062;10.338;2023-05-09T05:24:02;10.13;;;6.00;;
76995;SDS011;65929;49.062;10.338;2023-05-09T05:25:03;10.52;;;5.80;;
76995;SDS011;65929;49.062;10.338;2023-05-09T05:26:04;10.00;;;6.20;;
76995;SDS011;65929;49.062;10.338;2023-05-09T05:27:05;10.13;;;6.10;;
76995;SDS011;65929;49.062;10.338;2023-05-09T05:28:06;10.60;;;6.38;;
76995;SDS011;65929;49.062;10.338;2023-05-09T05:29:07;9.60;;;6.00;;
76995;SDS011;65929;49.062;10.338;2023-05-09T05:30:08;8.27;;;5.75;;
76995;SDS011;65929;49.062;10.338;2023-05-09T05:31:13;9.45;;;6.10;;
76995;SDS011;65929;49.062;10.338;2023-05-09T05:32:14;8.95;;;5.63;;
76995;SDS011;65929;49.062;10.338;2023-05-09T05:33:15;9.82;;;5.65;;
76995;SDS011;65929;49.062;10.338;2023-05-09T05:34:16;8.75;;;5.75;;
76995;SDS011;65929;49.062;10.338;2023-05-09T05:35:18;11.10;;;6.00;;
76995;SDS011;65929;49.062;10.338;2023-05-09T05:36:22;8.90;;;5.80;;
76995;SDS011;65929;49.062;10.338;2023-05-09T05:37:23;7.40;;;5.25;;
76995;SDS011;65929;49.062;10.338;2023-05-09T05:38:24;10.70;;;6.15;;
76995;SDS011;65929;49.062;10.338;2023-05-09T05:39:25;8.57;;;5.88;;
76995;SDS011;65929;49.062;10.338;2023-05-09T05:40:25;9.57;;;5.53;;
76995;SDS011;65929;49.062;10.338;2023-05-09T05:41:26;9.68;;;5.72;;
76995;SDS011;65929;49.062;10.338;2023-05-09T05:42:27;9.18;;;5.68;;
76995;SDS011;65929;49.062;10.338;2023-05-09T05:43:28;8.98;;;5.38;;
76995;SDS011;65929;49.062;10.338;2023-05-09T05:44:29;9.98;;;5.75;;
76995;SDS011;65929;49.062;10.338;2023-05-09T05:45:30;7.38;;;4.75;;
76995;SDS011;65929;49.062;10.338;2023-05-09T05:46:31;9.98;;;5.70;;
76995;SDS011;65929;49.062;10.338;2023-05-09T05:47:32;7.95;;;5.10;;
76995;SDS011;65929;49.062;10.338;2023-05-09T05:48:34;9.88;;;5.32;;
76995;SDS011;65929;49.062;10.338;2023-05-09T05:49:35;8.85;;;5.55;;
76995;SDS011;65929;49.062;10.338;2023-05-09T05:50:37;8.23;;;5.53;;
76995;SDS011;65929;49.062;10.338;2023-05-09T05:51:38;8.48;;;5.75;;
76995;SDS011;65929;49.062;10.338;2023-05-09T05:52:40;7.25;;;4.95;;
76995;SDS011;65929;49.062;10.338;2023-05-09T05:53:41;8.40;;;5.72;;
76995;SDS011;65929;49.062;10.338;2023-05-09T05:54:42;8.98;;;5.82;;
76995;SDS011;65929;49.062;10.338;2023-05-09T05:55:43;9.45;;;6.35;;
76995;SDS011;65929;49.062;10.338;2023-05-09T05:56:45;8.85;;;5.25;;
76995;SDS011;65929;49.062;10.338;2023-05-09T05:57:46;9.98;;;6.18;;
76995;SDS011;65929;49.062;10.338;2023-05-09T05:58:47;8.60;;;5.35;;
76995;SDS011;65929;49.062;10.338;2023-05-09T05:59:49;7.55;;;4.93;;
76995;SDS011;65929;49.062;10.338;2023-05-09T06:00:50;9.75;;;5.88;;
76995;SDS011;65929;49.062;10.338;2023-05-09T06:01:51;8.75;;;5.75;;
76995;SDS011;65929;49.062;10.338;2023-05-09T06:02:52;10.18;;;5.63;;
76995;SDS011;65929;49.062;10.338;2023-05-09T06:03:53;7.28;;;5.25;;
76995;SDS011;65929;49.062;10.338;2023-05-09T06:04:55;8.77;;;5.70;;
76995;SDS011;65929;49.062;10.338;2023-05-09T06:05:57;12.50;;;7.05;;